Time;durP1;ratioP1;P1;durP2;ratioP2;P2;SDS_P1;SDS_P2;PMS_P1;PMS_P2;Temp;Humidity;BMP_temperature;BMP_pressure;BME280_temperature;BME280_humidity;BME280_pressure;Samples;Min_cycle;Max_cycle;Signal;HPM_P1;HPM_P2
2023/06/12 00:00:52;;;;;;;21.83;8.63;;;11.30;99.90;;;;;;5054269;28;20067;-76
2023/06/12 00:03:25;;;;;;;19.05;8.35;;;11.30;99.90;;;;;;5064539;28;20044;-77
2023/06/12 00:05:58;;;;;;;27.38;8.82;;;11.20;99.90;;;;;;5066498;28;20048;-79
2023/06/12 00:08:29;;;;;;;25.35;9.02;;;11.20;99.90;;;;;;5070476;28;20048;-77
2023/06/12 00:10:57;;;;;;;17.23;8.95;;;11.10;99.90;;;;;;5073134;28;20056;-77
2023/06/12 00:13:25;;;;;;;28.65;9.88;;;11.00;99.90;;;;;;5072561;28;20049;-77
2023/06/12 00:15:53;;;;;;;21.30;9.20;;;11.00;99.90;;;;;;5067190;28;20056;-77
2023/06/12 00:18:22;;;;;;;22.40;8.73;;;11.00;99.90;;;;;;5071491;28;20048;-78
2023/06/12 00:20:49;;;;;;;18.35;8.70;;;11.00;99.90;;;;;;5071462;28;20052;-78
2023/06/12 00:23:17;;;;;;;22.88;9.30;;;11.00;99.90;;;;;;5067896;28;20049;-78
2023/06/12 00:25:45;;;;;;;15.45;8.38;;;10.90;99.90;;;;;;5071477;28;20129;-77
2023/06/12 00:28:12;;;;;;;23.02;8.98;;;10.90;99.90;;;;;;5070840;28;20044;-78
2023/06/12 00:30:40;;;;;;;24.85;9.73;;;10.80;99.90;;;;;;5072291;28;20106;-78
2023/06/12 00:33:07;;;;;;;19.95;9.23;;;10.80;99.90;;;;;;5069691;28;20123;-77
2023/06/12 00:35:36;;;;;;;31.10;9.73;;;10.80;99.90;;;;;;5069642;28;20048;-76
2023/06/12 00:38:06;;;;;;;22.88;10.13;;;10.70;99.90;;;;;;5053780;28;20049;-77
2023/06/12 00:40:33;;;;;;;22.15;9.93;;;10.70;99.90;;;;;;5070800;28;20068;-77
2023/06/12 00:43:01;;;;;;;21.55;9.63;;;10.70;99.90;;;;;;5051096;28;20459;-77
2023/06/12 00:45:28;;;;;;;24.17;9.63;;;10.70;99.90;;;;;;5084663;28;20045;-77
2023/06/12 00:47:58;;;;;;;25.60;10.90;;;10.70;99.90;;;;;;5085788;28;20049;-77
2023/06/12 00:50:29;;;;;;;29.67;11.00;;;10.60;99.90;;;;;;5067149;28;20206;-77
2023/06/12 00:53:00;;;;;;;18.40;10.47;;;10.70;99.90;;;;;;5068974;28;20078;-76
2023/06/12 00:55:32;;;;;;;34.95;10.57;;;10.60;99.90;;;;;;5068258;28;20067;-76
2023/06/12 00:58:02;;;;;;;22.05;10.40;;;10.60;99.90;;;;;;5049828;28;20045;-77
2023/06/12 01:00:30;;;;;;;31.60;11.55;;;10.50;99.90;;;;;;5084426;28;20110;-77
2023/06/12 01:03:04;;;;;;;25.42;9.98;;;10.50;99.90;;;;;;5067723;28;20041;-77
2023/06/12 01:05:37;;;;;;;31.00;11.25;;;10.50;99.90;;;;;;5069104;28;20048;-77
2023/06/12 01:08:26;;;;;;;28.88;12.43;;;10.40;99.90;;;;;;5083497;28;20048;-77
2023/06/12 01:11:03;;;;;;;19.70;11.13;;;10.40;99.90;;;;;;5068373;28;20046;-77
2023/06/12 01:13:33;;;;;;;28.00;11.25;;;10.40;99.90;;;;;;5067373;28;20044;-77
2023/06/12 01:16:01;;;;;;;26.98;11.25;;;10.40;99.90;;;;;;5066462;28;20045;-77
2023/06/12 01:18:29;;;;;;;25.83;11.48;;;10.40;99.90;;;;;;5063774;28;20523;-77
2023/06/12 01:21:01;;;;;;;24.63;11.68;;;10.40;99.90;;;;;;5067784;28;20122;-77
2023/06/12 01:24:08;;;;;;;28.33;12.30;;;10.40;99.90;;;;;;5054074;28;20106;-77
2023/06/12 01:26:53;;;;;;;28.90;11.95;;;10.40;99.90;;;;;;5069362;28;20580;-78
2023/06/12 01:29:52;;;;;;;33.08;12.80;;;10.40;99.90;;;;;;5051073;28;20059;-78
2023/06/12 01:32:24;;;;;;;26.52;13.02;;;10.40;99.90;;;;;;5050475;28;20398;-78
2023/06/12 01:34:59;;;;;;;33.45;12.20;;;10.40;99.90;;;;;;5034179;28;20068;-78
2023/06/12 01:37:43;;;;;;;35.10;12.13;;;10.40;99.90;;;;;;5063309;28;20059;-78
2023/06/12 01:40:14;;;;;;;29.00;11.73;;;10.50;99.90;;;;;;5069545;28;20087;-78
2023/06/12 01:42:42;;;;;;;22.67;11.88;;;10.40;99.90;;;;;;5071568;28;20135;-78
2023/06/12 01:45:10;;;;;;;29.92;11.82;;;10.40;99.90;;;;;;5067599;28;20049;-79
2023/06/12 01:47:39;;;;;;;24.30;11.85;;;10.40;99.90;;;;;;5070210;28;20045;-78
2023/06/12 01:50:08;;;;;;;31.38;12.13;;;10.40;99.90;;;;;;5069105;28;20052;-78
2023/06/12 01:52:38;;;;;;;31.75;12.95;;;10.40;99.90;;;;;;5065086;28;20052;-78
2023/06/12 01:55:07;;;;;;;25.25;12.32;;;10.30;99.90;;;;;;5036495;28;20047;-78
2023/06/12 01:57:36;;;;;;;32.60;13.15;;;10.30;99.90;;;;;;5054565;28;20040;-78
2023/06/12 02:00:05;;;;;;;28.73;12.23;;;10.30;99.90;;;;;;5053628;28;20513;-79
2023/06/12 02:02:54;;;;;;;33.00;13.23;;;10.40;99.90;;;;;;5071518;28;20102;-79
2023/06/12 02:05:24;;;;;;;30.40;11.50;;;10.30;99.90;;;;;;5037383;28;20076;-78
2023/06/12 02:07:52;;;;;;;31.13;12.77;;;10.40;99.90;;;;;;5064417;28;20058;-78
2023/06/12 02:10:20;;;;;;;26.35;11.95;;;10.40;99.90;;;;;;5069349;28;20045;-77
2023/06/12 02:12:47;;;;;;;24.35;11.82;;;10.40;99.90;;;;;;5064695;28;20037;-78
2023/06/12 02:15:15;;;;;;;26.63;12.05;;;10.40;99.90;;;;;;5067516;28;20049;-77
2023/06/12 02:17:42;;;;;;;37.42;12.57;;;10.50;99.90;;;;;;5070608;28;20143;-77
2023/06/12 02:20:12;;;;;;;30.15;12.75;;;10.50;99.90;;;;;;5069888;28;20044;-77
2023/06/12 02:22:41;;;;;;;27.35;12.10;;;10.50;99.90;;;;;;5066227;28;20500;-76
2023/06/12 02:25:09;;;;;;;32.83;13.50;;;10.60;99.90;;;;;;5068260;28;20044;-76
2023/06/12 02:27:37;;;;;;;23.45;12.02;;;10.60;99.90;;;;;;5069597;28;20049;-78
2023/06/12 02:30:06;;;;;;;26.63;12.02;;;10.60;99.90;;;;;;5070839;28;20131;-76
2023/06/12 02:32:35;;;;;;;31.75;13.05;;;10.60;99.90;;;;;;5064428;28;20043;-77
2023/06/12 02:35:03;;;;;;;24.60;12.35;;;10.60;99.90;;;;;;5051447;28;20159;-77
2023/06/12 02:37:35;;;;;;;21.88;12.07;;;10.70;99.90;;;;;;5052926;28;20051;-78
2023/06/12 02:40:03;;;;;;;32.50;13.30;;;10.70;99.90;;;;;;5066791;28;20068;-77
2023/06/12 02:42:33;;;;;;;31.52;12.25;;;10.80;99.90;;;;;;5055267;28;20315;-78
2023/06/12 02:45:01;;;;;;;26.05;11.80;;;10.80;99.90;;;;;;5056303;28;20050;-78
2023/06/12 02:47:33;;;;;;;25.48;12.68;;;10.80;99.90;;;;;;5057198;28;20060;-77
2023/06/12 02:50:03;;;;;;;26.45;12.93;;;10.80;99.90;;;;;;5067929;28;20076;-77
2023/06/12 02:52:41;;;;;;;27.50;11.75;;;10.80;99.90;;;;;;5055165;28;20143;-77
2023/06/12 02:55:09;;;;;;;35.70;14.02;;;10.90;99.90;;;;;;5072937;28;20082;-77
2023/06/12 02:57:38;;;;;;;34.85;13.23;;;10.90;99.90;;;;;;5073205;28;20424;-77
2023/06/12 03:00:07;;;;;;;25.80;12.23;;;11.00;99.90;;;;;;5070772;28;20055;-76
2023/06/12 03:02:47;;;;;;;27.42;13.13;;;11.00;99.90;;;;;;5052673;28;20049;-77
2023/06/12 03:05:15;;;;;;;24.15;13.27;;;11.00;99.90;;;;;;5035880;28;20049;-77
2023/06/12 03:07:45;;;;;;;25.70;13.05;;;11.10;99.90;;;;;;5038666;28;20059;-77
2023/06/12 03:10:17;;;;;;;28.05;12.52;;;11.10;99.90;;;;;;5071561;28;20057;-76
2023/06/12 03:12:45;;;;;;;31.10;12.48;;;11.20;99.90;;;;;;5072710;28;20048;-77
2023/06/12 03:15:14;;;;;;;23.30;11.95;;;11.20;99.90;;;;;;5073988;28;20048;-76
2023/06/12 03:17:42;;;;;;;22.75;12.68;;;11.30;99.90;;;;;;5068236;28;20052;-77
2023/06/12 03:20:14;;;;;;;28.05;13.00;;;11.30;99.90;;;;;;5088563;28;20053;-77
2023/06/12 03:22:42;;;;;;;34.55;13.38;;;11.40;99.90;;;;;;5072526;28;20460;-76
2023/06/12 03:25:18;;;;;;;27.75;14.10;;;11.40;99.90;;;;;;5069701;28;20060;-76
2023/06/12 03:27:47;;;;;;;28.42;13.18;;;11.50;99.90;;;;;;5068840;28;20048;-77
2023/06/12 03:30:14;;;;;;;29.27;13.98;;;11.50;99.90;;;;;;5055298;28;20052;-77
2023/06/12 03:32:42;;;;;;;34.53;14.35;;;11.60;99.90;;;;;;5071895;28;20131;-77
2023/06/12 03:35:10;;;;;;;34.60;13.65;;;11.70;99.90;;;;;;5076681;28;20045;-77
2023/06/12 03:37:42;;;;;;;35.25;15.70;;;11.70;99.90;;;;;;5077063;28;20048;-77
2023/06/12 03:40:14;;;;;;;28.85;14.48;;;11.80;99.90;;;;;;5071185;28;20049;-77
2023/06/12 03:42:43;;;;;;;41.17;16.20;;;11.90;99.90;;;;;;5071457;28;20049;-76
2023/06/12 03:45:12;;;;;;;40.35;15.23;;;12.00;99.90;;;;;;5068810;28;20048;-77
2023/06/12 03:47:39;;;;;;;33.05;16.02;;;12.10;99.90;;;;;;5071410;28;20044;-77
2023/06/12 03:50:10;;;;;;;33.63;15.68;;;12.10;99.90;;;;;;5072918;28;20394;-77
2023/06/12 03:52:39;;;;;;;39.92;16.40;;;12.20;99.90;;;;;;5050853;28;20052;-77
2023/06/12 03:55:07;;;;;;;33.13;16.85;;;12.40;99.90;;;;;;5067485;28;20128;-77
2023/06/12 03:57:36;;;;;;;31.10;17.73;;;12.50;99.90;;;;;;5071042;28;20049;-76
2023/06/12 04:00:08;;;;;;;41.85;15.90;;;12.60;99.90;;;;;;5068648;28;20513;-76
2023/06/12 04:02:45;;;;;;;32.13;16.55;;;12.70;99.90;;;;;;5067305;28;20094;-77
2023/06/12 04:05:15;;;;;;;39.65;16.25;;;12.90;99.90;;;;;;5053853;28;20048;-77
2023/06/12 04:07:43;;;;;;;38.58;17.88;;;13.00;99.90;;;;;;5071419;28;20087;-77
2023/06/12 04:10:11;;;;;;;29.50;16.45;;;13.10;99.90;;;;;;5066377;28;20051;-77
2023/06/12 04:12:40;;;;;;;37.20;17.27;;;13.20;99.90;;;;;;5054629;28;20045;-77
2023/06/12 04:15:08;;;;;;;31.98;16.83;;;13.30;99.90;;;;;;5054023;28;20052;-77
2023/06/12 04:17:37;;;;;;;39.17;18.10;;;13.40;99.90;;;;;;5072790;28;20052;-77
2023/06/12 04:20:06;;;;;;;37.03;17.98;;;13.40;99.90;;;;;;5086028;28;20082;-77
2023/06/12 04:22:35;;;;;;;33.90;17.55;;;13.60;99.90;;;;;;5066866;28;20095;-77
2023/06/12 04:25:05;;;;;;;33.30;18.10;;;13.70;99.90;;;;;;5053115;28;20053;-77
2023/06/12 04:27:33;;;;;;;32.40;16.70;;;13.80;99.90;;;;;;5050735;28;20128;-77
2023/06/12 04:30:02;;;;;;;30.83;16.60;;;13.90;99.90;;;;;;5050770;28;20075;-78
2023/06/12 04:32:34;;;;;;;41.33;16.58;;;14.10;99.90;;;;;;5070855;28;20060;-78
2023/06/12 04:35:03;;;;;;;42.90;16.42;;;14.20;99.90;;;;;;5072223;28;20048;-79
2023/06/12 04:37:32;;;;;;;34.03;17.00;;;14.30;99.90;;;;;;5064192;28;20131;-78
2023/06/12 04:40:00;;;;;;;25.98;15.43;;;14.50;99.90;;;;;;5069799;28;20057;-77
2023/06/12 04:42:28;;;;;;;36.10;15.80;;;14.60;99.90;;;;;;5070783;28;20092;-77
2023/06/12 04:44:59;;;;;;;38.97;16.25;;;14.70;99.90;;;;;;5070531;28;20056;-77
2023/06/12 04:47:28;;;;;;;34.05;16.30;;;14.90;99.90;;;;;;5052706;28;20142;-77
2023/06/12 04:49:57;;;;;;;30.55;13.95;;;15.00;99.90;;;;;;5069427;28;20041;-77
2023/06/12 04:52:25;;;;;;;27.88;14.85;;;15.20;99.90;;;;;;5054069;28;20048;-78
2023/06/12 04:54:53;;;;;;;34.17;13.85;;;15.30;99.90;;;;;;5070666;28;20070;-77
2023/06/12 04:57:20;;;;;;;23.65;14.50;;;15.50;99.90;;;;;;5067138;28;20082;-79
2023/06/12 04:59:48;;;;;;;24.85;14.95;;;15.60;99.90;;;;;;5068905;28;20044;-78
2023/06/12 05:02:16;;;;;;;26.38;14.38;;;15.70;99.90;;;;;;5086622;28;20424;-78
2023/06/12 05:04:46;;;;;;;27.45;14.30;;;15.80;99.90;;;;;;5066259;28;20052;-78
2023/06/12 05:07:17;;;;;;;20.60;12.88;;;15.90;99.90;;;;;;5068812;28;20147;-78
2023/06/12 05:09:47;;;;;;;27.23;14.13;;;16.00;99.90;;;;;;5070329;28;20053;-77
2023/06/12 05:12:14;;;;;;;22.77;14.32;;;16.10;99.90;;;;;;5071081;28;20056;-77
2023/06/12 05:14:43;;;;;;;22.92;14.15;;;16.30;99.90;;;;;;5052806;28;20044;-77
2023/06/12 05:17:11;;;;;;;31.35;15.05;;;16.40;99.90;;;;;;5069906;28;20076;-79
2023/06/12 05:19:39;;;;;;;29.70;16.35;;;16.50;99.90;;;;;;5070256;28;20397;-78
2023/06/12 05:22:09;;;;;;;28.50;16.80;;;16.70;99.90;;;;;;5069325;28;20056;-79
2023/06/12 05:24:37;;;;;;;33.60;17.55;;;16.80;99.90;;;;;;5049146;28;20048;-79
2023/06/12 05:27:07;;;;;;;26.80;15.70;;;17.10;99.90;;;;;;5068339;28;20131;-79
2023/06/12 05:29:35;;;;;;;35.10;14.45;;;17.30;99.90;;;;;;5069314;28;20109;-78
2023/06/12 05:32:05;;;;;;;20.13;12.60;;;17.50;99.60;;;;;;5066364;28;20044;-79
2023/06/12 05:34:34;;;;;;;23.58;13.18;;;17.60;98.00;;;;;;5065545;28;20521;-78
2023/06/12 05:37:03;;;;;;;20.55;10.60;;;17.70;97.70;;;;;;5069356;28;20048;-78
2023/06/12 05:39:31;;;;;;;16.58;9.30;;;17.90;95.80;;;;;;5070103;28;20052;-79
2023/06/12 05:42:00;;;;;;;19.10;9.52;;;18.30;94.50;;;;;;5066210;28;20044;-80
2023/06/12 05:44:30;;;;;;;15.15;9.88;;;18.70;92.60;;;;;;5067245;28;20494;-78
2023/06/12 05:47:01;;;;;;;15.10;9.35;;;19.20;91.00;;;;;;5067268;28;20477;-79
2023/06/12 05:49:32;;;;;;;16.80;8.93;;;19.80;87.40;;;;;;5068783;28;20054;-80
2023/06/12 05:52:01;;;;;;;19.42;8.75;;;20.20;86.00;;;;;;5070405;28;20102;-79
2023/06/12 05:54:31;;;;;;;14.88;8.68;;;20.60;81.40;;;;;;5070100;28;20511;-79
2023/06/12 05:57:02;;;;;;;17.25;8.77;;;21.00;82.30;;;;;;5069649;28;20048;-80
2023/06/12 05:59:32;;;;;;;15.10;7.85;;;21.50;77.20;;;;;;5063360;28;20377;-80
2023/06/12 06:02:00;;;;;;;11.68;7.70;;;22.10;73.80;;;;;;5067847;28;20057;-79
2023/06/12 06:04:32;;;;;;;13.50;7.40;;;22.60;71.90;;;;;;5048147;28;20049;-81
2023/06/12 06:07:00;;;;;;;12.55;6.95;;;23.00;67.70;;;;;;5068436;28;20095;-80
2023/06/12 06:09:28;;;;;;;12.38;7.15;;;23.50;63.10;;;;;;5066479;28;20048;-79
2023/06/12 06:11:56;;;;;;;10.05;7.15;;;24.00;61.30;;;;;;5067256;28;20056;-79
2023/06/12 06:14:24;;;;;;;11.65;7.63;;;24.40;59.50;;;;;;5087734;28;20044;-80
2023/06/12 06:16:52;;;;;;;12.35;7.22;;;24.70;59.50;;;;;;5054446;28;20044;-79
2023/06/12 06:19:20;;;;;;;12.55;8.32;;;25.00;57.50;;;;;;5069614;28;20049;-80
2023/06/12 06:21:47;;;;;;;11.88;7.43;;;25.30;56.50;;;;;;5060119;28;20455;-80
2023/06/12 06:24:16;;;;;;;16.55;7.60;;;25.50;55.90;;;;;;5074037;28;20136;-80
2023/06/12 06:26:44;;;;;;;18.80;8.50;;;25.80;55.20;;;;;;5095297;28;20048;-80
2023/06/12 06:29:13;;;;;;;13.13;6.65;;;26.00;55.90;;;;;;5054967;28;20045;-78
2023/06/12 06:31:41;;;;;;;7.18;3.58;;;26.40;53.90;;;;;;5097603;28;20056;-78
2023/06/12 06:34:08;;;;;;;3.28;2.70;;;26.50;49.80;;;;;;5081425;28;20135;-78
2023/06/12 06:36:37;;;;;;;5.57;2.55;;;27.00;47.70;;;;;;5067965;28;20041;-78
2023/06/12 06:39:05;;;;;;;6.20;2.72;;;27.20;47.50;;;;;;5088424;28;20059;-78
2023/06/12 06:41:32;;;;;;;3.28;2.30;;;27.20;45.50;;;;;;5072244;28;20127;-79
2023/06/12 06:44:01;;;;;;;4.72;2.58;;;27.50;45.40;;;;;;5105939;28;20048;-78
2023/06/12 06:46:31;;;;;;;5.63;2.88;;;27.90;45.60;;;;;;5056222;28;20050;-80
2023/06/12 06:49:01;;;;;;;5.85;2.50;;;28.00;44.30;;;;;;5070516;28;20044;-80
2023/06/12 06:51:31;;;;;;;5.03;2.83;;;28.30;44.40;;;;;;5075873;28;20044;-74
2023/06/12 06:54:00;;;;;;;4.03;2.23;;;28.50;44.20;;;;;;5071632;28;20049;-74
2023/06/12 06:56:27;;;;;;;5.07;2.70;;;28.70;45.80;;;;;;5075345;28;20051;-76
2023/06/12 06:58:55;;;;;;;6.88;3.13;;;28.90;44.30;;;;;;5076921;28;20047;-75
2023/06/12 07:01:24;;;;;;;2.92;2.00;;;29.00;43.50;;;;;;5094603;28;20131;-76
2023/06/12 07:03:53;;;;;;;3.97;2.08;;;29.10;43.20;;;;;;5086663;28;20048;-76
2023/06/12 07:06:22;;;;;;;3.53;1.77;;;29.20;43.10;;;;;;5085764;28;20045;-77
2023/06/12 07:08:50;;;;;;;3.47;1.70;;;29.40;42.00;;;;;;5087268;28;20439;-77
2023/06/12 07:11:17;;;;;;;6.35;1.80;;;29.60;42.00;;;;;;5087183;28;20055;-75
2023/06/12 07:13:45;;;;;;;5.93;1.63;;;29.80;41.20;;;;;;5054390;28;20052;-77
2023/06/12 07:16:13;;;;;;;3.97;1.77;;;29.80;41.80;;;;;;5073875;28;20053;-75
2023/06/12 07:18:41;;;;;;;3.63;1.88;;;29.90;40.90;;;;;;5067817;28;20048;-76
2023/06/12 07:21:10;;;;;;;3.65;1.65;;;30.30;41.00;;;;;;5052153;28;20040;-75
2023/06/12 07:23:39;;;;;;;2.70;1.80;;;30.60;42.10;;;;;;5085433;28;20119;-80
2023/06/12 07:26:07;;;;;;;3.60;1.77;;;30.60;41.00;;;;;;5048748;28;20056;-76
2023/06/12 07:28:34;;;;;;;3.08;1.92;;;30.70;39.40;;;;;;5054329;28;20045;-78
2023/06/12 07:31:02;;;;;;;3.60;1.95;;;30.80;40.80;;;;;;5050288;28;20505;-78
2023/06/12 07:33:30;;;;;;;3.63;2.10;;;30.90;40.00;;;;;;5065909;28;20135;-77
2023/06/12 07:35:59;;;;;;;1.73;1.63;;;31.10;41.00;;;;;;5053073;28;20037;-77
2023/06/12 07:38:27;;;;;;;2.90;1.60;;;31.30;40.30;;;;;;5071181;28;20044;-77
2023/06/12 07:40:55;;;;;;;2.15;1.80;;;31.60;38.40;;;;;;5065467;28;20091;-83
2023/06/12 07:43:23;;;;;;;2.42;1.70;;;31.60;38.00;;;;;;5070348;28;20608;-78
2023/06/12 07:45:51;;;;;;;4.00;3.70;;;31.70;38.40;;;;;;5052972;28;20079;-77
2023/06/12 07:48:21;;;;;;;4.70;2.70;;;31.90;39.70;;;;;;5066801;28;20143;-75
2023/06/12 07:50:49;;;;;;;1.70;1.60;;;32.10;40.50;;;;;;5070249;28;20050;-73
2023/06/12 07:53:16;;;;;;;3.25;1.90;;;32.20;37.70;;;;;;5071139;28;20143;-75
2023/06/12 07:55:45;;;;;;;11.73;10.52;;;32.10;37.80;;;;;;5046571;28;20048;-77
2023/06/12 07:58:13;;;;;;;3.28;2.03;;;32.10;37.90;;;;;;5067256;28;20052;-77
2023/06/12 08:00:41;;;;;;;6.05;1.63;;;32.30;37.40;;;;;;5075558;28;20516;-76
2023/06/12 08:03:09;;;;;;;5.55;1.70;;;32.40;37.60;;;;;;5079288;28;20517;-76
2023/06/12 08:05:42;;;;;;;3.30;2.08;;;32.90;38.00;;;;;;5069923;28;20182;-77
2023/06/12 08:08:15;;;;;;;5.22;1.80;;;32.90;37.30;;;;;;5069582;28;20052;-75
2023/06/12 08:11:09;;;;;;;7.40;1.80;;;33.00;37.20;;;;;;5080591;28;20443;-75
2023/06/12 08:13:38;;;;;;;4.20;1.90;;;33.30;37.30;;;;;;5067523;28;20049;-78
2023/06/12 08:16:06;;;;;;;4.30;1.90;;;33.30;37.20;;;;;;5084248;28;20084;-77
2023/06/12 08:18:34;;;;;;;2.35;2.10;;;33.30;36.50;;;;;;5064211;28;20049;-78
2023/06/12 08:21:04;;;;;;;2.00;1.80;;;33.40;36.60;;;;;;5069325;28;20051;-77
2023/06/12 08:23:32;;;;;;;3.75;1.70;;;33.50;37.60;;;;;;5082251;28;20076;-75
2023/06/12 08:26:04;;;;;;;6.25;1.90;;;33.60;36.70;;;;;;5061539;28;20059;-77
2023/06/12 08:28:35;;;;;;;7.13;2.20;;;33.70;37.10;;;;;;5062586;28;20048;-77
2023/06/12 08:31:03;;;;;;;5.35;2.10;;;34.00;37.70;;;;;;5066662;28;20627;-76
2023/06/12 08:33:31;;;;;;;2.40;2.05;;;34.00;37.20;;;;;;5063584;28;20079;-78
2023/06/12 08:35:59;;;;;;;2.50;2.30;;;34.10;36.80;;;;;;5059282;28;20050;-78
2023/06/12 08:38:27;;;;;;;5.25;1.73;;;34.10;37.20;;;;;;5065232;28;20051;-78
2023/06/12 08:40:59;;;;;;;5.32;4.70;;;34.10;37.90;;;;;;5067592;28;20165;-75
2023/06/12 08:43:29;;;;;;;;;;;34.30;37.60;;;;;;5067393;28;20055;-76
2023/06/12 08:45:58;;;;;;;4.97;3.50;;;34.30;36.40;;;;;;5052069;28;20430;-76
2023/06/12 08:48:30;;;;;;;5.35;2.15;;;34.30;36.80;;;;;;5066654;28;20056;-75
2023/06/12 08:50:58;;;;;;;;;;;34.40;37.10;;;;;;5059429;28;20053;-77
2023/06/12 08:53:25;;;;;;;5.47;2.20;;;34.30;37.00;;;;;;5072164;28;20327;-76
2023/06/12 08:55:53;;;;;;;4.38;2.20;;;34.50;36.50;;;;;;5051459;28;20064;-76
2023/06/12 08:58:20;;;;;;;2.65;2.42;;;34.60;35.30;;;;;;5092850;28;20086;-77
2023/06/12 09:00:48;;;;;;;3.63;2.20;;;34.70;36.30;;;;;;5070113;28;20045;-77
2023/06/12 09:03:16;;;;;;;5.15;2.13;;;34.80;35.70;;;;;;5068413;28;20072;-77
2023/06/12 09:05:45;;;;;;;3.38;2.30;;;34.80;36.90;;;;;;5069627;28;20044;-80
2023/06/12 09:08:13;;;;;;;4.90;2.55;;;34.80;36.60;;;;;;5067232;28;20097;-79
2023/06/12 09:10:49;;;;;;;2.13;2.03;;;34.90;36.50;;;;;;5068522;28;20094;-77
2023/06/12 09:13:24;;;;;;;3.42;2.30;;;34.90;36.00;;;;;;5051682;28;20056;-81
2023/06/12 09:15:58;;;;;;;3.55;2.15;;;35.20;35.70;;;;;;5067762;28;20151;-81
2023/06/12 09:18:27;;;;;;;3.45;2.10;;;35.20;35.60;;;;;;5066139;28;20053;-79
2023/06/12 09:20:56;;;;;;;8.70;3.35;;;35.30;37.40;;;;;;5080232;28;20097;-81
2023/06/12 09:23:26;;;;;;;4.78;2.30;;;35.30;36.80;;;;;;5070173;28;20473;-81
2023/06/12 09:25:56;;;;;;;4.70;4.50;;;35.40;36.80;;;;;;5063711;28;20056;-83
2023/06/12 09:28:26;;;;;;;9.98;6.65;;;35.40;36.00;;;;;;5084255;28;20295;-83
2023/06/12 09:30:55;;;;;;;5.40;2.40;;;35.70;36.90;;;;;;5069447;28;20678;-84
2023/06/12 09:33:30;;;;;;;6.22;2.10;;;35.80;37.10;;;;;;5061105;28;20053;-82
2023/06/12 09:35:57;;;;;;;3.83;2.28;;;36.00;36.40;;;;;;5067400;28;20496;-82
2023/06/12 09:38:32;;;;;;;2.47;2.28;;;36.10;36.10;;;;;;5066988;28;20047;-80
2023/06/12 09:41:06;;;;;;;3.30;3.00;;;36.20;35.60;;;;;;5073823;28;20051;-79
2023/06/12 09:43:34;;;;;;;7.28;2.63;;;36.10;34.60;;;;;;5079329;28;20040;-80
2023/06/12 09:46:08;;;;;;;6.45;2.03;;;36.20;36.00;;;;;;5070316;28;20066;-81
2023/06/12 09:48:40;;;;;;;2.25;1.90;;;36.30;36.10;;;;;;5068954;28;20036;-81
2023/06/12 09:51:09;;;;;;;2.67;1.83;;;36.30;35.50;;;;;;5068161;28;20055;-77
2023/06/12 09:53:39;;;;;;;4.75;1.90;;;36.40;34.90;;;;;;5064377;28;20667;-80
2023/06/12 09:56:09;;;;;;;2.47;1.73;;;36.40;34.80;;;;;;5075789;28;20049;-80
2023/06/12 09:58:39;;;;;;;2.13;2.00;;;36.20;35.20;;;;;;5060697;28;20079;-78
2023/06/12 10:01:08;;;;;;;3.63;2.08;;;36.10;34.60;;;;;;5076874;28;20052;-82
2023/06/12 10:03:39;;;;;;;3.13;1.95;;;36.30;34.50;;;;;;5067598;28;20052;-79
2023/06/12 10:06:10;;;;;;;3.03;2.10;;;36.30;33.70;;;;;;5061405;28;20041;-78
2023/06/12 10:08:37;;;;;;;2.05;1.85;;;36.30;35.10;;;;;;5072243;28;20767;-78
2023/06/12 10:11:07;;;;;;;2.47;2.10;;;36.40;35.50;;;;;;5058111;28;20052;-79
2023/06/12 10:13:37;;;;;;;2.60;1.63;;;36.40;34.10;;;;;;5049624;28;20083;-77
2023/06/12 10:16:05;;;;;;;3.00;1.95;;;36.30;34.00;;;;;;5061711;28;20058;-78
2023/06/12 10:18:35;;;;;;;4.15;1.80;;;36.40;35.60;;;;;;5067382;28;20135;-79
2023/06/12 10:21:05;;;;;;;7.53;2.10;;;36.40;35.10;;;;;;5070459;28;20072;-80
2023/06/12 10:23:33;;;;;;;3.78;2.00;;;36.70;35.40;;;;;;5068121;28;20041;-78
2023/06/12 10:26:01;;;;;;;2.65;2.00;;;36.90;34.20;;;;;;5067481;28;20087;-79
2023/06/12 10:28:29;;;;;;;2.08;1.90;;;36.90;34.10;;;;;;5067904;28;20562;-80
2023/06/12 10:31:17;;;;;;;2.30;2.10;;;37.00;34.00;;;;;;5064537;28;20058;-79
2023/06/12 10:33:59;;;;;;;3.40;2.28;;;37.00;34.40;;;;;;5067629;28;20041;-79
2023/06/12 10:36:59;;;;;;;3.45;2.00;;;37.00;35.30;;;;;;5069997;28;20079;-79
2023/06/12 10:44:41;;;;;;;3.72;2.30;;;37.20;33.90;;;;;;5051859;28;20139;-80
2023/06/12 10:47:20;;;;;;;3.58;2.08;;;37.50;33.30;;;;;;5065606;28;20118;-81
2023/06/12 10:50:08;;;;;;;7.57;2.45;;;37.60;33.20;;;;;;5069983;28;20143;-81
2023/06/12 10:52:37;;;;;;;3.63;2.15;;;37.60;33.10;;;;;;5068199;28;20068;-79
2023/06/12 10:55:23;;;;;;;3.35;2.00;;;37.60;32.30;;;;;;5050292;28;20071;-79
2023/06/12 10:57:56;;;;;;;4.72;1.70;;;37.70;32.20;;;;;;5064377;28;20048;-80
2023/06/12 11:00:29;;;;;;;3.15;2.00;;;37.70;33.90;;;;;;5066718;28;20472;-79
2023/06/12 11:03:01;;;;;;;2.20;2.03;;;37.60;32.70;;;;;;5071892;28;20611;-79
2023/06/12 11:05:30;;;;;;;5.68;1.80;;;37.70;33.20;;;;;;5067296;28;20091;-80
2023/06/12 11:08:01;;;;;;;2.92;2.08;;;37.80;33.80;;;;;;5070302;28;20049;-78
2023/06/12 11:10:30;;;;;;;2.73;1.97;;;38.00;32.70;;;;;;5068584;28;20064;-78
2023/06/12 11:12:58;;;;;;;3.00;1.63;;;38.00;32.10;;;;;;5106426;28;20297;-78
2023/06/12 11:15:25;;;;;;;4.00;2.20;;;37.90;32.60;;;;;;5070509;28;20044;-77
2023/06/12 11:17:54;;;;;;;3.28;2.03;;;37.90;32.70;;;;;;5071691;28;20405;-77
2023/06/12 11:20:33;;;;;;;4.40;1.90;;;38.20;32.10;;;;;;5068672;28;20127;-79
2023/06/12 11:23:03;;;;;;;2.15;2.05;;;38.10;33.20;;;;;;5071613;28;21354;-81
2023/06/12 11:25:58;;;;;;;2.72;1.85;;;38.30;33.10;;;;;;5066822;28;20057;-81
2023/06/12 11:28:29;;;;;;;2.65;1.70;;;38.50;32.80;;;;;;5070881;28;20041;-82
2023/06/12 11:30:57;;;;;;;3.75;2.33;;;38.60;31.80;;;;;;5069232;28;20083;-82
2023/06/12 11:33:25;;;;;;;3.85;2.10;;;38.80;32.10;;;;;;5068619;28;20066;-81
2023/06/12 11:35:58;;;;;;;2.90;1.92;;;39.00;32.60;;;;;;5055698;28;20047;-82
2023/06/12 11:38:28;;;;;;;5.38;2.13;;;39.20;31.70;;;;;;5069220;28;20090;-80
2023/06/12 11:40:55;;;;;;;1.98;1.70;;;39.30;32.50;;;;;;5068325;28;20052;-82
2023/06/12 11:43:26;;;;;;;1.98;1.88;;;39.30;31.00;;;;;;5066285;28;20144;-81
2023/06/12 11:45:56;;;;;;;3.78;1.92;;;39.20;31.40;;;;;;5070261;28;20079;-79
2023/06/12 11:48:24;;;;;;;4.50;1.90;;;39.40;32.30;;;;;;5069790;28;20036;-82
2023/06/12 11:50:54;;;;;;;5.47;2.25;;;39.60;31.20;;;;;;5070281;28;20055;-79
2023/06/12 11:53:22;;;;;;;4.35;2.20;;;39.80;31.30;;;;;;5070604;28;20051;-80
2023/06/12 11:56:14;;;;;;;3.88;2.30;;;39.80;31.80;;;;;;5070145;28;20090;-80
2023/06/12 11:58:44;;;;;;;3.00;1.77;;;39.70;31.60;;;;;;5070614;28;20049;-79
2023/06/12 12:01:13;;;;;;;3.10;2.03;;;39.80;31.20;;;;;;5069384;28;20151;-80
2023/06/12 12:03:44;;;;;;;2.10;2.00;;;39.70;30.50;;;;;;5070268;28;20090;-79
2023/06/12 12:06:11;;;;;;;3.20;2.20;;;39.70;31.70;;;;;;5067181;28;20048;-78
2023/06/12 12:08:40;;;;;;;3.78;2.00;;;39.50;31.50;;;;;;5081587;28;20083;-79
2023/06/12 12:11:21;;;;;;;2.13;2.03;;;39.50;30.90;;;;;;5065369;28;20143;-79
2023/06/12 12:13:53;;;;;;;3.88;2.03;;;39.50;31.20;;;;;;5067183;28;20084;-78
2023/06/12 12:16:26;;;;;;;4.00;1.70;;;39.50;31.20;;;;;;5067513;28;20459;-79
2023/06/12 12:18:54;;;;;;;4.85;2.10;;;39.60;31.80;;;;;;5072307;28;20528;-81
2023/06/12 12:21:23;;;;;;;3.63;2.20;;;39.70;30.40;;;;;;5075906;28;20052;-80
2023/06/12 12:23:53;;;;;;;2.25;1.90;;;39.70;30.50;;;;;;5072092;28;20106;-79
2023/06/12 12:26:22;;;;;;;2.08;1.88;;;39.30;30.00;;;;;;5071003;28;20439;-79
2023/06/12 12:28:50;;;;;;;6.95;2.20;;;39.00;31.80;;;;;;5068394;28;20496;-78
2023/06/12 12:31:19;;;;;;;2.28;1.90;;;39.30;31.00;;;;;;5070699;28;20075;-79
2023/06/12 12:33:47;;;;;;;2.30;2.10;;;39.30;31.30;;;;;;5050222;28;20521;-78
2023/06/12 12:36:17;;;;;;;3.67;1.90;;;39.60;29.90;;;;;;5063255;28;20057;-84
2023/06/12 12:38:45;;;;;;;3.60;2.03;;;39.20;30.40;;;;;;5046058;28;20581;-81
2023/06/12 12:41:12;;;;;;;6.47;2.20;;;39.20;29.80;;;;;;5076323;28;20059;-82
2023/06/12 12:43:41;;;;;;;2.50;1.73;;;38.60;31.60;;;;;;5063868;28;20040;-81
2023/06/12 12:46:09;;;;;;;3.60;1.95;;;38.70;31.00;;;;;;5063090;28;20048;-81
2023/06/12 12:48:38;;;;;;;3.60;3.30;;;38.90;30.80;;;;;;5067761;28;20052;-81
2023/06/12 12:51:07;;;;;;;9.00;2.50;;;39.00;30.80;;;;;;5067648;28;20040;-81
2023/06/12 12:53:35;;;;;;;3.92;3.67;;;39.10;30.60;;;;;;5070226;28;20106;-83
2023/06/12 12:56:03;;;;;;;2.33;2.00;;;39.30;30.80;;;;;;5071601;28;20544;-80
2023/06/12 12:58:31;;;;;;;4.22;1.90;;;39.30;30.80;;;;;;5074198;28;20056;-82